Time;durP1;ratioP1;P1;durP2;ratioP2;P2;SDS_P1;SDS_P2;PMS_P1;PMS_P2;Temp;Humidity;BMP_temperature;BMP_pressure;BME280_temperature;BME280_humidity;BME280_pressure;Samples;Min_cycle;Max_cycle;Signal;HPM_P1;HPM_P2
2023/09/23 00:00:08;;;;;;;1.13;0.50;;;;;;;;;;5057065;28;20034;-60
2023/09/23 00:02:36;;;;;;;1.02;0.50;;;;;;;;;;5057058;28;20032;-60
2023/09/23 00:05:03;;;;;;;1.23;0.70;;;;;;;;;;5057817;28;20032;-60
2023/09/23 00:07:31;;;;;;;1.63;0.50;;;;;;;;;;5057239;28;20459;-60
2023/09/23 00:09:56;;;;;;;1.75;0.88;;;;;;;;;;5057447;28;20110;-60
2023/09/23 00:12:23;;;;;;;1.35;0.52;;;;;;;;;;5056585;28;20060;-60
2023/09/23 00:14:49;;;;;;;0.93;0.40;;;;;;;;;;5056834;28;20032;-60
2023/09/23 00:17:15;;;;;;;0.90;0.40;;;;;;;;;;5057103;28;20021;-58
2023/09/23 00:19:41;;;;;;;1.23;0.50;;;;;;;;;;5057523;28;20366;-59
2023/09/23 00:22:12;;;;;;;0.55;0.38;;;;;;;;;;5056753;28;20033;-60
2023/09/23 00:24:38;;;;;;;1.58;0.65;;;;;;;;;;5057190;28;20037;-60
2023/09/23 00:27:04;;;;;;;0.90;0.38;;;;;;;;;;5056668;28;20075;-60
2023/09/23 00:29:30;;;;;;;1.75;0.82;;;;;;;;;;5057164;28;20035;-60
2023/09/23 00:31:57;;;;;;;0.90;0.50;;;;;;;;;;5056509;28;20028;-60
2023/09/23 00:34:23;;;;;;;1.02;0.47;;;;;;;;;;5056258;28;20069;-60
2023/09/23 00:36:50;;;;;;;1.38;0.57;;;;;;;;;;5056682;28;20112;-60
2023/09/23 00:39:17;;;;;;;0.95;0.50;;;;;;;;;;5056882;28;20029;-60
2023/09/23 00:41:43;;;;;;;1.38;0.82;;;;;;;;;;5056500;28;20487;-60
2023/09/23 00:44:09;;;;;;;0.85;0.43;;;;;;;;;;5056576;28;20060;-60
2023/09/23 00:46:36;;;;;;;1.88;0.70;;;;;;;;;;5056781;28;20028;-60
2023/09/23 00:49:07;;;;;;;2.60;0.47;;;;;;;;;;5056188;28;20028;-60
2023/09/23 00:51:32;;;;;;;;;;;;;;;;;;5056943;28;20029;-60
2023/09/23 00:54:01;;;;;;;0.73;0.38;;;;;;;;;;5056494;28;20192;-60
2023/09/23 00:56:30;;;;;;;0.50;0.30;;;;;;;;;;5056555;28;20029;-60
2023/09/23 00:58:58;;;;;;;0.68;0.40;;;;;;;;;;5056241;28;20467;-60
2023/09/23 01:01:24;;;;;;;2.08;0.75;;;;;;;;;;5056683;28;20037;-60
2023/09/23 01:03:50;;;;;;;0.65;0.32;;;;;;;;;;5055914;28;20071;-60
2023/09/23 01:06:16;;;;;;;2.05;0.88;;;;;;;;;;5055921;28;20020;-60
2023/09/23 01:08:45;;;;;;;0.73;0.32;;;;;;;;;;5055863;28;20017;-60
2023/09/23 01:11:11;;;;;;;0.82;0.40;;;;;;;;;;5056358;28;20029;-60
2023/09/23 01:13:37;;;;;;;1.05;0.40;;;;;;;;;;5056033;28;20025;-60
2023/09/23 01:16:08;;;;;;;1.13;0.57;;;;;;;;;;5055698;28;20028;-60
2023/09/23 01:18:35;;;;;;;1.20;0.57;;;;;;;;;;5056258;28;20092;-60
2023/09/23 01:21:01;;;;;;;0.98;0.47;;;;;;;;;;5055827;28;20032;-60
2023/09/23 01:23:27;;;;;;;1.25;0.50;;;;;;;;;;5055627;28;20025;-58
2023/09/23 01:25:53;;;;;;;0.98;0.45;;;;;;;;;;5055849;28;20049;-58
2023/09/23 01:28:19;;;;;;;1.15;0.45;;;;;;;;;;5055446;28;20067;-58
2023/09/23 01:30:45;;;;;;;2.05;0.50;;;;;;;;;;5056008;28;20021;-58
2023/09/23 01:33:13;;;;;;;1.48;0.52;;;;;;;;;;5055412;28;20455;-60
2023/09/23 01:35:40;;;;;;;0.52;0.30;;;;;;;;;;5055916;28;20118;-60
2023/09/23 01:38:06;;;;;;;1.65;0.70;;;;;;;;;;5055642;28;20033;-60
2023/09/23 01:40:33;;;;;;;0.70;0.38;;;;;;;;;;5055782;28;20037;-60
2023/09/23 01:42:59;;;;;;;0.70;0.30;;;;;;;;;;5055197;28;20036;-60
2023/09/23 01:45:26;;;;;;;0.60;0.40;;;;;;;;;;5055530;28;20124;-60
2023/09/23 01:47:52;;;;;;;0.30;0.13;;;;;;;;;;5055141;28;20091;-60
2023/09/23 01:50:18;;;;;;;0.70;0.30;;;;;;;;;;5055939;28;20420;-60
2023/09/23 01:52:45;;;;;;;0.40;0.20;;;;;;;;;;5054990;28;20465;-60
2023/09/23 01:55:12;;;;;;;0.63;0.40;;;;;;;;;;5055281;28;20029;-60
2023/09/23 01:57:41;;;;;;;1.17;0.52;;;;;;;;;;5054919;28;20036;-60
2023/09/23 02:00:17;;;;;;;0.98;0.50;;;;;;;;;;5055367;28;20043;-60
2023/09/23 02:02:43;;;;;;;1.02;0.50;;;;;;;;;;5055092;28;20029;-58
2023/09/23 02:05:12;;;;;;;1.13;0.65;;;;;;;;;;5054846;28;20056;-58
2023/09/23 02:07:39;;;;;;;0.73;0.40;;;;;;;;;;5054952;28;20108;-58
2023/09/23 02:10:11;;;;;;;0.85;0.40;;;;;;;;;;5054721;28;20473;-60
2023/09/23 02:12:37;;;;;;;1.95;0.43;;;;;;;;;;5055003;28;20050;-61
2023/09/23 02:15:04;;;;;;;0.90;0.30;;;;;;;;;;5054465;28;20518;-58
2023/09/23 02:17:30;;;;;;;0.52;0.30;;;;;;;;;;5054609;28;20120;-58
2023/09/23 02:19:57;;;;;;;0.30;0.17;;;;;;;;;;5054836;28;20033;-59
2023/09/23 02:22:23;;;;;;;1.77;0.50;;;;;;;;;;5054438;28;20175;-58
2023/09/23 02:24:49;;;;;;;1.23;0.50;;;;;;;;;;5054793;28;20132;-58
2023/09/23 02:27:16;;;;;;;0.43;0.32;;;;;;;;;;5054898;28;20040;-59
2023/09/23 02:29:42;;;;;;;0.80;0.40;;;;;;;;;;5054319;28;20033;-58
2023/09/23 02:32:08;;;;;;;0.52;0.40;;;;;;;;;;5054285;28;20037;-58
2023/09/23 02:34:36;;;;;;;1.08;0.57;;;;;;;;;;5053995;28;20104;-60
2023/09/23 02:37:05;;;;;;;0.80;0.35;;;;;;;;;;5054433;28;20029;-61
2023/09/23 02:39:31;;;;;;;0.90;0.40;;;;;;;;;;5054104;28;20506;-60
2023/09/23 02:41:59;;;;;;;0.75;0.45;;;;;;;;;;5054214;28;20028;-60
2023/09/23 02:44:27;;;;;;;1.50;0.43;;;;;;;;;;5054061;28;20052;-60
2023/09/23 02:46:53;;;;;;;0.93;0.38;;;;;;;;;;5053679;28;20494;-58
2023/09/23 02:49:19;;;;;;;4.15;0.65;;;;;;;;;;5054471;28;20116;-58
2023/09/23 02:51:45;;;;;;;1.38;0.55;;;;;;;;;;5053591;28;20501;-58
2023/09/23 02:54:21;;;;;;;0.73;0.38;;;;;;;;;;5054010;28;20469;-58
2023/09/23 02:56:48;;;;;;;0.75;0.30;;;;;;;;;;5054759;28;20060;-58
2023/09/23 02:59:15;;;;;;;6.47;0.90;;;;;;;;;;5054931;28;20028;-58
2023/09/23 03:01:45;;;;;;;0.55;0.35;;;;;;;;;;5054593;28;20021;-58
2023/09/23 03:04:19;;;;;;;1.27;0.50;;;;;;;;;;5054379;28;20430;-58
2023/09/23 03:06:50;;;;;;;1.50;0.40;;;;;;;;;;5054277;28;20033;-58
2023/09/23 03:09:19;;;;;;;1.23;0.50;;;;;;;;;;5053736;28;20017;-58
2023/09/23 03:11:49;;;;;;;1.70;0.40;;;;;;;;;;5054457;28;20036;-58
2023/09/23 03:14:18;;;;;;;1.40;0.60;;;;;;;;;;5053655;28;20032;-58
2023/09/23 03:16:49;;;;;;;1.85;0.60;;;;;;;;;;5054378;28;20399;-58
2023/09/23 03:19:15;;;;;;;;;;;;;;;;;;5054573;28;20025;-58
2023/09/23 03:21:45;;;;;;;1.10;0.47;;;;;;;;;;5053554;28;19957;-58
2023/09/23 03:24:11;;;;;;;1.83;0.60;;;;;;;;;;5054184;28;20411;-58
2023/09/23 03:26:37;;;;;;;1.52;0.60;;;;;;;;;;5053979;28;20040;-58
2023/09/23 03:29:06;;;;;;;0.90;0.40;;;;;;;;;;5054083;28;20489;-58
2023/09/23 03:31:32;;;;;;;1.13;0.40;;;;;;;;;;5053473;28;20037;-58
2023/09/23 03:34:03;;;;;;;0.93;0.50;;;;;;;;;;5053722;28;20037;-58
2023/09/23 03:36:31;;;;;;;1.67;0.63;;;;;;;;;;5053969;28;20053;-58
2023/09/23 03:38:57;;;;;;;0.93;0.57;;;;;;;;;;5053356;28;20029;-58
2023/09/23 03:41:23;;;;;;;1.13;0.50;;;;;;;;;;5054154;28;20087;-58
2023/09/23 03:43:49;;;;;;;1.40;0.73;;;;;;;;;;5053878;28;20025;-58
2023/09/23 03:46:17;;;;;;;1.08;0.47;;;;;;;;;;5053395;28;20525;-58
2023/09/23 03:48:43;;;;;;;0.85;0.32;;;;;;;;;;5053251;28;20029;-58
2023/09/23 03:51:09;;;;;;;0.95;0.50;;;;;;;;;;5053733;28;20120;-58
2023/09/23 03:53:36;;;;;;;0.25;0.20;;;;;;;;;;5053814;28;20021;-58
2023/09/23 03:56:03;;;;;;;0.50;0.28;;;;;;;;;;5053406;28;20107;-58
2023/09/23 03:58:30;;;;;;;1.08;0.50;;;;;;;;;;5053165;28;20467;-58
2023/09/23 04:00:56;;;;;;;1.00;0.50;;;;;;;;;;5053722;28;20143;-58
2023/09/23 04:03:22;;;;;;;3.13;0.70;;;;;;;;;;5053222;28;20120;-58
2023/09/23 04:05:55;;;;;;;1.60;0.68;;;;;;;;;;5053479;28;20060;-58
2023/09/23 04:08:21;;;;;;;1.00;0.57;;;;;;;;;;5053074;28;20029;-58
2023/09/23 04:10:46;;;;;;;1.38;0.70;;;;;;;;;;5054050;28;20108;-58
2023/09/23 04:13:14;;;;;;;1.00;0.57;;;;;;;;;;5053689;28;20140;-58
2023/09/23 04:15:40;;;;;;;1.38;0.70;;;;;;;;;;5053016;28;20375;-58
2023/09/23 04:18:06;;;;;;;1.23;0.55;;;;;;;;;;5052980;28;20032;-58
2023/09/23 04:20:32;;;;;;;1.00;0.50;;;;;;;;;;5053738;28;20049;-58
2023/09/23 04:22:58;;;;;;;1.60;0.40;;;;;;;;;;5053497;28;20025;-58
2023/09/23 04:25:27;;;;;;;1.95;1.17;;;;;;;;;;5053240;28;20367;-58
2023/09/23 04:27:53;;;;;;;1.20;0.70;;;;;;;;;;5053236;28;20036;-58
2023/09/23 04:30:19;;;;;;;1.02;0.52;;;;;;;;;;5053335;28;20027;-58
2023/09/23 04:32:46;;;;;;;1.48;0.70;;;;;;;;;;5052821;28;20036;-58
2023/09/23 04:35:13;;;;;;;0.68;0.40;;;;;;;;;;5052866;28;20057;-58
2023/09/23 04:37:39;;;;;;;0.65;0.50;;;;;;;;;;5054420;28;20098;-58
2023/09/23 04:40:09;;;;;;;1.50;0.65;;;;;;;;;;5057271;28;20025;-58
2023/09/23 04:42:35;;;;;;;1.30;0.60;;;;;;;;;;5056421;28;20033;-58
2023/09/23 04:45:01;;;;;;;1.35;0.65;;;;;;;;;;5056537;28;20451;-58
2023/09/23 04:47:27;;;;;;;3.17;0.70;;;;;;;;;;5056255;28;20028;-58
2023/09/23 04:49:55;;;;;;;1.00;0.60;;;;;;;;;;5056789;28;20056;-58
2023/09/23 04:52:21;;;;;;;1.85;0.77;;;;;;;;;;5056879;28;20021;-58
2023/09/23 04:54:47;;;;;;;0.65;0.40;;;;;;;;;;5055967;28;20059;-58
2023/09/23 04:57:14;;;;;;;1.90;0.88;;;;;;;;;;5056394;28;20463;-58
2023/09/23 04:59:40;;;;;;;1.42;0.70;;;;;;;;;;5055874;28;20068;-58
2023/09/23 05:02:06;;;;;;;1.10;0.60;;;;;;;;;;5056186;28;20061;-58
2023/09/23 05:04:32;;;;;;;1.67;0.60;;;;;;;;;;5056276;28;20111;-58
2023/09/23 05:07:00;;;;;;;1.40;0.50;;;;;;;;;;5056056;28;20033;-58
2023/09/23 05:09:26;;;;;;;0.70;0.30;;;;;;;;;;5056241;28;20033;-58
2023/09/23 05:11:53;;;;;;;1.48;0.45;;;;;;;;;;5055926;28;20039;-58
2023/09/23 05:14:19;;;;;;;1.65;0.73;;;;;;;;;;5056106;28;20044;-58
2023/09/23 05:16:45;;;;;;;1.15;0.45;;;;;;;;;;5056392;28;20113;-58
2023/09/23 05:19:11;;;;;;;1.90;0.80;;;;;;;;;;5055730;28;20401;-58
2023/09/23 05:21:38;;;;;;;3.03;0.90;;;;;;;;;;5056136;28;20039;-58
2023/09/23 05:24:06;;;;;;;0.90;0.40;;;;;;;;;;5055722;28;20025;-58
2023/09/23 05:26:33;;;;;;;0.93;0.52;;;;;;;;;;5055328;28;20490;-58
2023/09/23 05:28:59;;;;;;;1.98;0.73;;;;;;;;;;5055522;28;20036;-58
2023/09/23 05:31:25;;;;;;;1.50;0.60;;;;;;;;;;5055882;28;20033;-58
2023/09/23 05:33:51;;;;;;;1.27;0.60;;;;;;;;;;5056024;28;20028;-58
2023/09/23 05:36:17;;;;;;;2.53;0.63;;;;;;;;;;5054960;28;20077;-58
2023/09/23 05:38:43;;;;;;;1.75;0.80;;;;;;;;;;5056187;28;20025;-58
2023/09/23 05:41:09;;;;;;;1.10;0.50;;;;;;;;;;5056076;28;20032;-58
2023/09/23 05:43:35;;;;;;;1.17;0.63;;;;;;;;;;5055862;28;20025;-58
2023/09/23 05:46:11;;;;;;;1.30;0.50;;;;;;;;;;5055314;28;20037;-58
2023/09/23 05:48:37;;;;;;;1.65;0.80;;;;;;;;;;5055594;28;20033;-58
2023/09/23 05:51:06;;;;;;;1.52;0.70;;;;;;;;;;5055036;28;20390;-58
2023/09/23 05:53:33;;;;;;;2.03;0.73;;;;;;;;;;5055076;28;20056;-58
2023/09/23 05:55:59;;;;;;;2.70;0.50;;;;;;;;;;5055081;28;20025;-58
2023/09/23 05:58:25;;;;;;;1.63;0.75;;;;;;;;;;5055032;28;20028;-58
2023/09/23 06:00:52;;;;;;;3.50;0.70;;;;;;;;;;5055235;28;20033;-58
2023/09/23 06:03:17;;;;;;;2.22;0.75;;;;;;;;;;5054850;28;20029;-58
2023/09/23 06:05:46;;;;;;;1.77;0.98;;;;;;;;;;5054871;28;20102;-58
2023/09/23 06:08:12;;;;;;;2.08;0.47;;;;;;;;;;5055253;28;20029;-58
2023/09/23 06:10:39;;;;;;;1.65;0.77;;;;;;;;;;5054847;28;20096;-58
2023/09/23 06:13:05;;;;;;;1.80;0.88;;;;;;;;;;5055192;28;20021;-58
2023/09/23 06:15:32;;;;;;;1.55;0.52;;;;;;;;;;5055112;28;20029;-58
2023/09/23 06:17:58;;;;;;;1.67;0.60;;;;;;;;;;5054714;28;20029;-59
2023/09/23 06:20:24;;;;;;;3.85;1.35;;;;;;;;;;5055084;28;20087;-59
2023/09/23 06:22:49;;;;;;;2.22;0.80;;;;;;;;;;5054888;28;20052;-59
2023/09/23 06:25:16;;;;;;;1.92;0.95;;;;;;;;;;5054888;28;20017;-59
2023/09/23 06:27:42;;;;;;;1.92;0.88;;;;;;;;;;5054492;28;20053;-59
2023/09/23 06:30:08;;;;;;;1.77;0.80;;;;;;;;;;5055278;28;20371;-59
2023/09/23 06:32:35;;;;;;;1.65;0.57;;;;;;;;;;5054073;28;20442;-59
2023/09/23 06:35:01;;;;;;;0.57;0.35;;;;;;;;;;5054218;28;20131;-59
2023/09/23 06:37:27;;;;;;;1.75;0.77;;;;;;;;;;5054248;28;20025;-59
2023/09/23 06:39:53;;;;;;;2.38;0.77;;;;;;;;;;5053940;28;20037;-59
2023/09/23 06:42:19;;;;;;;1.63;0.75;;;;;;;;;;5054688;28;20028;-59
2023/09/23 06:44:45;;;;;;;1.13;0.55;;;;;;;;;;5054227;28;20367;-59
2023/09/23 06:47:11;;;;;;;1.48;0.68;;;;;;;;;;5053813;28;20025;-59
2023/09/23 06:49:38;;;;;;;5.22;0.70;;;;;;;;;;5054403;28;20036;-59
2023/09/23 06:52:04;;;;;;;2.05;0.82;;;;;;;;;;5054747;28;20029;-58
2023/09/23 06:54:30;;;;;;;1.30;0.60;;;;;;;;;;5054033;28;20522;-59
2023/09/23 06:56:56;;;;;;;1.27;0.70;;;;;;;;;;5053625;28;20459;-59
2023/09/23 06:59:22;;;;;;;1.17;0.60;;;;;;;;;;5054137;28;20035;-59
2023/09/23 07:01:48;;;;;;;1.20;0.55;;;;;;;;;;5054279;28;20447;-59
2023/09/23 07:04:14;;;;;;;1.15;0.47;;;;;;;;;;5053877;28;20029;-59
2023/09/23 07:06:40;;;;;;;1.75;0.95;;;;;;;;;;5053896;28;20029;-59
2023/09/23 07:09:07;;;;;;;2.30;0.63;;;;;;;;;;5054389;28;20452;-59
2023/09/23 07:11:33;;;;;;;1.80;0.88;;;;;;;;;;5054393;28;20037;-59
2023/09/23 07:14:00;;;;;;;1.63;0.80;;;;;;;;;;5053969;28;20106;-59
2023/09/23 07:16:26;;;;;;;0.95;0.50;;;;;;;;;;5053665;28;20025;-59
2023/09/23 07:18:53;;;;;;;1.58;0.60;;;;;;;;;;5053860;28;20025;-59
2023/09/23 07:21:20;;;;;;;0.93;0.63;;;;;;;;;;5054140;28;20033;-59
2023/09/23 07:23:46;;;;;;;0.98;0.57;;;;;;;;;;5053537;28;20029;-59
2023/09/23 07:26:19;;;;;;;2.00;0.70;;;;;;;;;;5053547;28;20028;-59
2023/09/23 07:28:45;;;;;;;1.83;0.60;;;;;;;;;;5054149;28;20039;-59
2023/09/23 07:31:11;;;;;;;1.90;0.90;;;;;;;;;;5053249;28;20419;-59
2023/09/23 07:33:37;;;;;;;2.47;1.05;;;;;;;;;;5053977;28;20052;-59
2023/09/23 07:36:09;;;;;;;1.15;0.63;;;;;;;;;;5053269;28;20422;-59
2023/09/23 07:38:35;;;;;;;6.28;0.82;;;;;;;;;;5053941;28;20025;-59
2023/09/23 07:41:02;;;;;;;1.33;0.40;;;;;;;;;;5054172;28;20402;-59
2023/09/23 07:43:28;;;;;;;1.65;0.50;;;;;;;;;;5053377;28;20036;-59
2023/09/23 07:45:54;;;;;;;0.75;0.32;;;;;;;;;;5054181;28;20108;-59
2023/09/23 07:48:20;;;;;;;1.15;0.70;;;;;;;;;;5053328;28;20025;-59
2023/09/23 07:50:46;;;;;;;2.38;0.93;;;;;;;;;;5053668;28;20370;-59
2023/09/23 07:53:12;;;;;;;1.30;0.52;;;;;;;;;;5053260;28;20024;-59
2023/09/23 07:55:38;;;;;;;0.82;0.38;;;;;;;;;;5053274;28;20476;-59
2023/09/23 07:58:05;;;;;;;3.28;0.73;;;;;;;;;;5053983;28;20029;-59
2023/09/23 08:00:31;;;;;;;0.90;0.40;;;;;;;;;;5053178;28;20033;-59
2023/09/23 08:02:56;;;;;;;0.88;0.38;;;;;;;;;;5052892;28;20032;-59
2023/09/23 08:05:26;;;;;;;1.15;0.55;;;;;;;;;;5053296;28;20078;-59
2023/09/23 08:07:52;;;;;;;1.08;0.50;;;;;;;;;;5053133;28;20108;-59
2023/09/23 08:10:18;;;;;;;0.55;0.30;;;;;;;;;;5053707;28;20048;-59
2023/09/23 08:12:47;;;;;;;0.52;0.22;;;;;;;;;;5054562;28;20021;-59
2023/09/23 08:15:13;;;;;;;2.83;0.45;;;;;;;;;;5057204;28;20031;-59
2023/09/23 08:17:40;;;;;;;1.52;0.60;;;;;;;;;;5057448;28;20068;-59
2023/09/23 08:20:17;;;;;;;0.40;0.20;;;;;;;;;;5056450;28;20032;-59
2023/09/23 08:22:43;;;;;;;0.45;0.20;;;;;;;;;;5057190;28;20028;-59
2023/09/23 08:25:09;;;;;;;0.63;0.30;;;;;;;;;;5056830;28;20082;-59
2023/09/23 08:27:35;;;;;;;1.52;0.40;;;;;;;;;;5056468;28;20020;-59
2023/09/23 08:30:01;;;;;;;1.20;0.50;;;;;;;;;;5057504;28;20032;-59
2023/09/23 08:32:27;;;;;;;1.77;0.63;;;;;;;;;;5056607;28;20032;-59
2023/09/23 08:34:53;;;;;;;2.00;0.20;;;;;;;;;;5056705;28;20056;-59
2023/09/23 08:37:19;;;;;;;1.15;0.50;;;;;;;;;;5056844;28;20021;-59
2023/09/23 08:39:45;;;;;;;0.50;0.30;;;;;;;;;;5056373;28;20069;-59
2023/09/23 08:42:11;;;;;;;0.45;0.25;;;;;;;;;;5057248;28;20116;-59
2023/09/23 08:44:38;;;;;;;1.27;0.55;;;;;;;;;;5056420;28;20099;-58
2023/09/23 08:47:05;;;;;;;1.33;0.55;;;;;;;;;;5056407;28;20121;-59
2023/09/23 08:49:32;;;;;;;0.95;0.40;;;;;;;;;;5056658;28;20540;-59
2023/09/23 08:51:58;;;;;;;1.02;0.55;;;;;;;;;;5055830;28;20044;-59
2023/09/23 08:54:27;;;;;;;1.58;0.43;;;;;;;;;;5057021;28;20120;-59
2023/09/23 08:56:54;;;;;;;1.00;0.50;;;;;;;;;;5056711;28;20043;-59
2023/09/23 08:59:20;;;;;;;1.13;0.40;;;;;;;;;;5056163;28;20440;-59
2023/09/23 09:01:46;;;;;;;0.90;0.38;;;;;;;;;;5055963;28;20033;-59
2023/09/23 09:04:14;;;;;;;1.70;0.65;;;;;;;;;;5056286;28;20070;-59
2023/09/23 09:06:46;;;;;;;1.13;0.47;;;;;;;;;;5056015;28;20017;-59
2023/09/23 09:09:12;;;;;;;1.42;0.40;;;;;;;;;;5056102;28;20374;-59
2023/09/23 09:11:38;;;;;;;1.73;0.50;;;;;;;;;;5055935;28;20036;-58
2023/09/23 09:14:04;;;;;;;1.27;0.45;;;;;;;;;;5055922;28;20129;-59
2023/09/23 09:16:30;;;;;;;3.13;0.60;;;;;;;;;;5055844;28;20382;-59
2023/09/23 09:18:57;;;;;;;0.95;0.40;;;;;;;;;;5056377;28;20033;-59
2023/09/23 09:21:24;;;;;;;1.63;0.55;;;;;;;;;;5056146;28;20415;-59
2023/09/23 09:23:51;;;;;;;3.53;0.40;;;;;;;;;;5055515;28;20086;-59
2023/09/23 09:26:18;;;;;;;1.65;0.65;;;;;;;;;;5056225;28;20025;-59
2023/09/23 09:28:44;;;;;;;0.45;0.28;;;;;;;;;;5056101;28;20078;-59
2023/09/23 09:31:10;;;;;;;1.15;0.52;;;;;;;;;;5055655;28;20029;-59
2023/09/23 09:33:37;;;;;;;1.05;0.40;;;;;;;;;;5055871;28;20024;-59
2023/09/23 09:36:05;;;;;;;1.45;0.63;;;;;;;;;;5055773;28;20044;-59
2023/09/23 09:38:33;;;;;;;2.08;0.63;;;;;;;;;;5055337;28;20512;-59
2023/09/23 09:41:04;;;;;;;1.30;0.60;;;;;;;;;;5055721;28;20025;-59
2023/09/23 09:43:33;;;;;;;0.47;0.28;;;;;;;;;;5055322;28;20036;-59
2023/09/23 09:46:07;;;;;;;0.40;0.20;;;;;;;;;;5055241;28;20033;-59
2023/09/23 09:48:34;;;;;;;1.75;0.50;;;;;;;;;;5055853;28;20033;-59
2023/09/23 09:51:00;;;;;;;1.52;0.70;;;;;;;;;;5055509;28;20057;-59
2023/09/23 09:53:26;;;;;;;0.93;0.40;;;;;;;;;;5055558;28;20406;-59
2023/09/23 09:55:52;;;;;;;0.57;0.30;;;;;;;;;;5055687;28;20466;-59
2023/09/23 09:58:18;;;;;;;2.50;0.47;;;;;;;;;;5055279;28;20029;-59
2023/09/23 10:00:47;;;;;;;0.98;0.50;;;;;;;;;;5055325;28;20119;-59
2023/09/23 10:03:13;;;;;;;0.70;0.25;;;;;;;;;;5054887;28;20479;-59
2023/09/23 10:05:46;;;;;;;1.38;0.70;;;;;;;;;;5054936;28;20079;-59
2023/09/23 10:08:12;;;;;;;0.80;0.40;;;;;;;;;;5054879;28;20371;-59
2023/09/23 10:10:43;;;;;;;1.95;0.45;;;;;;;;;;5055059;28;20032;-59
2023/09/23 10:13:12;;;;;;;2.13;0.70;;;;;;;;;;5055098;28;20078;-59
2023/09/23 10:15:40;;;;;;;2.03;0.60;;;;;;;;;;5055175;28;20112;-59
2023/09/23 10:18:10;;;;;;;1.25;0.45;;;;;;;;;;5054552;28;20027;-59
2023/09/23 10:20:39;;;;;;;0.93;0.52;;;;;;;;;;5054450;28;20463;-60
2023/09/23 10:23:06;;;;;;;1.42;0.50;;;;;;;;;;5054549;28;20082;-60
2023/09/23 10:25:44;;;;;;;0.73;0.30;;;;;;;;;;5055310;28;20167;-59
2023/09/23 10:28:23;;;;;;;0.65;0.40;;;;;;;;;;5054357;28;20056;-60
2023/09/23 10:30:56;;;;;;;1.13;0.38;;;;;;;;;;5054666;28;20474;-60
2023/09/23 10:33:23;;;;;;;3.15;0.88;;;;;;;;;;5054280;28;20032;-60
2023/09/23 10:35:49;;;;;;;1.70;0.50;;;;;;;;;;5053832;28;20418;-59
2023/09/23 10:38:21;;;;;;;1.73;0.68;;;;;;;;;;5054865;28;20426;-59
2023/09/23 10:40:54;;;;;;;1.48;0.65;;;;;;;;;;5054443;28;20033;-59
2023/09/23 10:43:21;;;;;;;1.40;0.65;;;;;;;;;;5054262;28;20057;-60
2023/09/23 10:45:48;;;;;;;2.22;0.70;;;;;;;;;;5054520;28;20033;-59
2023/09/23 10:48:14;;;;;;;1.85;0.60;;;;;;;;;;5053597;28;20029;-60
2023/09/23 10:50:40;;;;;;;0.52;0.20;;;;;;;;;;5054521;28;20362;-60
2023/09/23 10:53:07;;;;;;;1.08;0.57;;;;;;;;;;5053666;28;20123;-59
2023/09/23 10:55:34;;;;;;;1.15;0.55;;;;;;;;;;5054026;28;20029;-60
2023/09/23 10:58:00;;;;;;;2.08;0.60;;;;;;;;;;5054383;28;20021;-59
2023/09/23 11:00:28;;;;;;;4.05;0.75;;;;;;;;;;5053856;28;20044;-59
2023/09/23 11:02:54;;;;;;;0.75;0.35;;;;;;;;;;5054112;28;20025;-60
2023/09/23 11:05:24;;;;;;;0.95;0.38;;;;;;;;;;5053871;28;20077;-60
2023/09/23 11:07:54;;;;;;;2.22;0.32;;;;;;;;;;5053789;28;20375;-60
2023/09/23 11:10:22;;;;;;;4.47;0.60;;;;;;;;;;5054399;28;20117;-59
2023/09/23 11:12:48;;;;;;;1.00;0.30;;;;;;;;;;5053764;28;20025;-60
2023/09/23 11:15:13;;;;;;;1.85;0.57;;;;;;;;;;5053694;28;20025;-60
2023/09/23 11:17:40;;;;;;;0.90;0.50;;;;;;;;;;5053304;28;20029;-60
2023/09/23 11:20:10;;;;;;;1.15;0.60;;;;;;;;;;5053644;28;20037;-60
2023/09/23 11:22:37;;;;;;;0.88;0.40;;;;;;;;;;5053591;28;20409;-60
2023/09/23 11:25:08;;;;;;;1.52;0.65;;;;;;;;;;5053578;28;20363;-60
2023/09/23 11:27:33;;;;;;;;;;;;;;;;;;5053901;28;20056;-59
2023/09/23 11:29:59;;;;;;;1.73;0.55;;;;;;;;;;5054037;28;20258;-60
2023/09/23 11:32:26;;;;;;;1.55;0.70;;;;;;;;;;5053969;28;20328;-60
2023/09/23 11:34:52;;;;;;;1.35;0.50;;;;;;;;;;5053653;28;20048;-60
2023/09/23 11:37:22;;;;;;;2.10;0.65;;;;;;;;;;5053451;28;20021;-60
2023/09/23 11:39:49;;;;;;;1.58;0.60;;;;;;;;;;5053583;28;20041;-60
2023/09/23 11:42:15;;;;;;;1.38;0.30;;;;;;;;;;5053853;28;20451;-60
2023/09/23 11:44:41;;;;;;;2.28;0.95;;;;;;;;;;5053840;28;20027;-60
2023/09/23 11:47:07;;;;;;;0.77;0.25;;;;;;;;;;5053379;28;20491;-60
2023/09/23 11:49:33;;;;;;;2.25;0.60;;;;;;;;;;5057621;28;20092;-60
2023/09/23 11:51:59;;;;;;;0.98;0.50;;;;;;;;;;5057330;28;20465;-60
2023/09/23 11:54:25;;;;;;;1.35;0.60;;;;;;;;;;5057220;28;20382;-60
2023/09/23 11:56:51;;;;;;;2.13;0.68;;;;;;;;;;5057471;28;20082;-60
2023/09/23 11:59:20;;;;;;;2.10;0.70;;;;;;;;;;5057379;28;20408;-60
2023/09/23 12:01:47;;;;;;;2.30;0.60;;;;;;;;;;5057681;28;20044;-60
2023/09/23 12:04:13;;;;;;;3.15;0.65;;;;;;;;;;5057551;28;20045;-60
2023/09/23 12:06:40;;;;;;;1.70;0.70;;;;;;;;;;5056975;28;20072;-60
2023/09/23 12:09:10;;;;;;;1.00;0.30;;;;;;;;;;5057571;28;20028;-60
2023/09/23 12:11:38;;;;;;;1.13;0.50;;;;;;;;;;5057543;28;20086;-60
2023/09/23 12:14:04;;;;;;;1.48;0.50;;;;;;;;;;5056942;28;20029;-60
2023/09/23 12:16:29;;;;;;;1.33;0.60;;;;;;;;;;5056997;28;20032;-60
2023/09/23 12:18:55;;;;;;;1.80;0.55;;;;;;;;;;5057199;28;20048;-60
2023/09/23 12:21:21;;;;;;;1.33;0.57;;;;;;;;;;5057355;28;20036;-60
2023/09/23 12:23:47;;;;;;;2.17;0.38;;;;;;;;;;5056643;28;20417;-60
2023/09/23 12:26:15;;;;;;;1.00;0.45;;;;;;;;;;5057584;28;20151;-60
2023/09/23 12:28:41;;;;;;;1.08;0.40;;;;;;;;;;5056697;28;20474;-60
2023/09/23 12:31:07;;;;;;;0.90;0.50;;;;;;;;;;5056780;28;20033;-60
2023/09/23 12:33:33;;;;;;;1.10;0.50;;;;;;;;;;5057264;28;20053;-60
2023/09/23 12:35:58;;;;;;;1.08;0.40;;;;;;;;;;5056716;28;20049;-60
2023/09/23 12:38:24;;;;;;;1.02;0.50;;;;;;;;;;5056319;28;20028;-60
2023/09/23 12:40:50;;;;;;;2.05;0.70;;;;;;;;;;5056281;28;20039;-60
2023/09/23 12:43:16;;;;;;;0.47;0.25;;;;;;;;;;5056587;28;20103;-60
2023/09/23 12:45:43;;;;;;;1.42;0.82;;;;;;;;;;5056090;28;20108;-60
2023/09/23 12:48:10;;;;;;;0.65;0.32;;;;;;;;;;5056402;28;20033;-60
2023/09/23 12:50:36;;;;;;;1.77;0.43;;;;;;;;;;5056606;28;20033;-60
2023/09/23 12:53:02;;;;;;;0.65;0.28;;;;;;;;;;5056570;28;20074;-60
2023/09/23 12:55:28;;;;;;;1.02;0.60;;;;;;;;;;5056751;28;20103;-60
2023/09/23 12:57:55;;;;;;;1.20;0.45;;;;;;;;;;5055921;28;20470;-60
2023/09/23 13:00:21;;;;;;;3.00;0.50;;;;;;;;;;5056257;28;20387;-60
2023/09/23 13:02:47;;;;;;;0.75;0.25;;;;;;;;;;5056667;28;20102;-60
2023/09/23 13:05:14;;;;;;;2.40;0.70;;;;;;;;;;5056356;28;20021;-60
2023/09/23 13:07:40;;;;;;;1.05;0.57;;;;;;;;;;5056015;28;20017;-60
2023/09/23 13:10:07;;;;;;;1.60;0.70;;;;;;;;;;5055829;28;20127;-60
2023/09/23 13:12:33;;;;;;;1.95;0.65;;;;;;;;;;5055640;28;20036;-60
2023/09/23 13:14:59;;;;;;;0.60;0.35;;;;;;;;;;5056057;28;20018;-60
2023/09/23 13:17:24;;;;;;;0.75;0.50;;;;;;;;;;5055876;28;20013;-60
2023/09/23 13:19:50;;;;;;;1.50;0.38;;;;;;;;;;5056019;28;20079;-60
2023/09/23 13:22:16;;;;;;;2.63;0.75;;;;;;;;;;5055703;28;20021;-60
2023/09/23 13:24:42;;;;;;;1.48;0.73;;;;;;;;;;5055656;28;20031;-60
2023/09/23 13:27:08;;;;;;;1.38;0.40;;;;;;;;;;5055947;28;20362;-60
2023/09/23 13:29:34;;;;;;;1.52;0.43;;;;;;;;;;5055951;28;20425;-60
2023/09/23 13:32:00;;;;;;;0.73;0.25;;;;;;;;;;5055623;28;20025;-60
2023/09/23 13:34:26;;;;;;;1.25;0.22;;;;;;;;;;5055093;28;20024;-60
2023/09/23 13:36:52;;;;;;;1.75;0.50;;;;;;;;;;5055740;28;20036;-60
2023/09/23 13:39:18;;;;;;;1.10;0.47;;;;;;;;;;5056247;28;20355;-60
2023/09/23 13:41:44;;;;;;;0.73;0.25;;;;;;;;;;5055933;28;20121;-60
2023/09/23 13:44:10;;;;;;;0.75;0.35;;;;;;;;;;5055335;28;20474;-60
2023/09/23 13:46:36;;;;;;;0.95;0.40;;;;;;;;;;5055304;28;20029;-60
2023/09/23 13:49:04;;;;;;;0.93;0.40;;;;;;;;;;5055950;28;20062;-60
2023/09/23 13:51:30;;;;;;;0.47;0.22;;;;;;;;;;5055166;28;20029;-60
2023/09/23 13:53:56;;;;;;;0.68;0.30;;;;;;;;;;5055863;28;20017;-60
2023/09/23 13:56:22;;;;;;;0.95;0.30;;;;;;;;;;5055173;28;20439;-60
2023/09/23 13:58:48;;;;;;;1.38;0.40;;;;;;;;;;5055012;28;20025;-60
2023/09/23 14:01:14;;;;;;;1.42;0.45;;;;;;;;;;5055051;28;20383;-60
2023/09/23 14:03:40;;;;;;;1.42;0.63;;;;;;;;;;5054701;28;20028;-60
2023/09/23 14:06:06;;;;;;;0.80;0.38;;;;;;;;;;5055758;28;20028;-60
2023/09/23 14:08:32;;;;;;;0.82;0.35;;;;;;;;;;5054900;28;20025;-60
2023/09/23 14:10:59;;;;;;;1.50;0.40;;;;;;;;;;5054294;28;20035;-60
2023/09/23 14:13:25;;;;;;;1.20;0.50;;;;;;;;;;5054870;28;20029;-60
2023/09/23 14:15:51;;;;;;;1.42;0.43;;;;;;;;;;5054407;28;20467;-60
2023/09/23 14:18:17;;;;;;;2.33;0.60;;;;;;;;;;5054419;28;20103;-60
2023/09/23 14:20:44;;;;;;;0.90;0.43;;;;;;;;;;5054999;28;20029;-60
2023/09/23 14:23:10;;;;;;;0.73;0.40;;;;;;;;;;5055146;28;20033;-60
2023/09/23 14:25:36;;;;;;;1.27;0.55;;;;;;;;;;5054648;28;20355;-60
2023/09/23 14:28:02;;;;;;;1.38;0.60;;;;;;;;;;5054275;28;20028;-60
2023/09/23 14:30:28;;;;;;;0.80;0.40;;;;;;;;;;5054995;28;20343;-60
2023/09/23 14:32:54;;;;;;;1.10;0.40;;;;;;;;;;5055221;28;20112;-60
2023/09/23 14:35:20;;;;;;;0.85;0.32;;;;;;;;;;5054430;28;20146;-60
2023/09/23 14:37:47;;;;;;;2.05;0.60;;;;;;;;;;5054323;28;20463;-59
2023/09/23 14:40:13;;;;;;;1.90;0.50;;;;;;;;;;5055086;28;20116;-60